SKPS Airport Information

Runway Information
Runway 02 Length 7585 ft width 130 ft
Elevation 5840 ft Threshold 200 ft Heading 16
Runway 20 Length 7585 ft Width 130 ft
Elevation 5840 ft Threshold 170 ft Heading 196
Airport Frequencies
Type RDO Name PASTO RDO Frequency 348.8 MHZ
Type TWR Name TWR Frequency 118 MHZ
Airport Navaids
Type VOR-DME Name Pasto Frequency 113400 KHZ
Type NDB Name Pasto Frequency 264 KHZ
Airport Weather Information & NOTAM
ADDS - METARS form results

(2215 UTC 25 June 2022)
Data provider http://aviationweather.gov/metar/data/
 
METAR text: SKPS 252200Z 35005KT 9999 SCT020 19/19 Q1018 RMK A3008
Conditions at: SKPS (PASTO/ANTONIO NA, CO) observed 2200 UTC 25 June 2022
Temperature: 19.0°C (66°F)
Dewpoint: 19.0°C (66°F) [RH = 100%]
Pressure (altimeter): 30.06 inches Hg (1018.0 mb)
Winds: from the N (350 degrees) at 6 MPH (5 knots; 2.6 m/s)
Visibility: 6 or more miles (10+ km)
Ceiling: at least 12,000 feet AGL
Clouds: scattered clouds at 2000 feet AGL
Weather: no significant weather observed at this time